Time;durP1;ratioP1;P1;durP2;ratioP2;P2;SDS_P1;SDS_P2;PMS_P1;PMS_P2;Temp;Humidity;BMP_temperature;BMP_pressure;BME280_temperature;BME280_humidity;BME280_pressure;Samples;Min_cycle;Max_cycle;Signal;HPM_P1;HPM_P2
2023/09/23 00:00:13;;;;;;;10.55;2.15;;;10.60;99.90;;;;;;4960373;28;20031;-91
2023/09/23 00:02:45;;;;;;;7.85;1.85;;;10.60;99.90;;;;;;4976108;28;20026;-89
2023/09/23 00:05:15;;;;;;;6.28;2.35;;;10.60;99.90;;;;;;4959272;28;20051;-91
2023/09/23 00:07:41;;;;;;;8.18;2.03;;;10.50;99.90;;;;;;4959270;28;20058;-91
2023/09/23 00:10:11;;;;;;;11.52;2.25;;;10.50;99.90;;;;;;4959145;28;20051;-91
2023/09/23 00:12:38;;;;;;;7.68;2.08;;;10.40;99.90;;;;;;4974085;28;20027;-90
2023/09/23 00:15:07;;;;;;;10.23;2.53;;;10.40;99.90;;;;;;4975098;28;20114;-90
2023/09/23 00:17:37;;;;;;;8.18;1.75;;;10.40;99.90;;;;;;4958869;28;20031;-90
2023/09/23 00:20:06;;;;;;;5.35;1.58;;;10.30;99.90;;;;;;4976705;28;20023;-91
2023/09/23 00:22:31;;;;;;;9.75;1.70;;;10.30;99.90;;;;;;4959318;28;20521;-90
2023/09/23 00:24:58;;;;;;;4.47;1.58;;;10.30;99.90;;;;;;4960205;28;20062;-90
2023/09/23 00:27:27;;;;;;;7.32;1.77;;;10.20;99.90;;;;;;4959565;28;20601;-90
2023/09/23 00:29:52;;;;;;;9.10;1.65;;;10.20;99.90;;;;;;4975260;28;20038;-91
2023/09/23 00:32:18;;;;;;;10.88;1.90;;;10.20;99.90;;;;;;4959406;28;20118;-90
2023/09/23 00:34:44;;;;;;;7.50;1.73;;;10.20;99.90;;;;;;4959430;28;20051;-91
2023/09/23 00:37:10;;;;;;;5.53;1.65;;;10.20;99.90;;;;;;4959036;28;20306;-91
2023/09/23 00:39:39;;;;;;;6.60;1.63;;;10.20;99.90;;;;;;4976100;28;20085;-92
2023/09/23 00:42:05;;;;;;;7.28;1.77;;;10.20;99.90;;;;;;4974986;28;20496;-90
2023/09/23 00:44:30;;;;;;;8.27;2.00;;;10.30;99.90;;;;;;4959114;28;20029;-91
2023/09/23 00:46:56;;;;;;;7.60;1.60;;;10.30;99.90;;;;;;4958675;28;20034;-92
2023/09/23 00:49:24;;;;;;;8.35;1.75;;;10.30;99.90;;;;;;4958759;28;20073;-91
2023/09/23 00:51:51;;;;;;;7.30;1.38;;;10.20;99.90;;;;;;4958216;28;20033;-90
2023/09/23 00:54:17;;;;;;;6.38;1.40;;;10.30;99.90;;;;;;4959307;28;20038;-91
2023/09/23 00:56:44;;;;;;;5.88;1.40;;;10.30;99.90;;;;;;4960535;28;20027;-91
2023/09/23 00:59:11;;;;;;;7.28;1.70;;;10.30;99.90;;;;;;4960362;28;20031;-90
2023/09/23 01:01:39;;;;;;;8.15;1.90;;;10.30;99.90;;;;;;4959725;28;20029;-91
2023/09/23 01:04:05;;;;;;;9.00;1.60;;;10.30;99.90;;;;;;4971948;28;20047;-91
2023/09/23 01:06:31;;;;;;;10.52;2.03;;;10.40;99.90;;;;;;4956784;29;20023;-90
2023/09/23 01:09:00;;;;;;;10.75;1.95;;;10.30;99.90;;;;;;4955742;29;20178;-92
2023/09/23 01:11:27;;;;;;;6.13;1.90;;;10.30;99.90;;;;;;4955700;29;20038;-92
2023/09/23 01:13:52;;;;;;;6.00;2.03;;;10.30;99.90;;;;;;4955286;28;20118;-91
2023/09/23 01:16:18;;;;;;;8.27;2.10;;;10.30;99.90;;;;;;4955417;29;20051;-92
2023/09/23 01:18:45;;;;;;;4.55;1.60;;;10.30;99.90;;;;;;4955547;29;20110;-91
2023/09/23 01:21:11;;;;;;;7.57;2.00;;;10.30;99.90;;;;;;4955400;29;20118;-90
2023/09/23 01:23:38;;;;;;;7.05;2.05;;;10.30;99.90;;;;;;4956372;28;20042;-91
2023/09/23 01:26:06;;;;;;;6.18;1.98;;;10.20;99.90;;;;;;4970963;28;20055;-92
2023/09/23 01:28:33;;;;;;;11.30;3.65;;;10.20;99.90;;;;;;4954839;29;20118;-91
2023/09/23 01:31:02;;;;;;;5.55;2.20;;;10.10;99.90;;;;;;4954771;29;20189;-90
2023/09/23 01:33:29;;;;;;;9.50;1.75;;;10.10;99.90;;;;;;4955085;29;20082;-91
2023/09/23 01:36:02;;;;;;;4.95;1.70;;;10.10;99.90;;;;;;4961997;28;20452;-90
2023/09/23 01:38:29;;;;;;;9.57;1.98;;;10.00;99.90;;;;;;4955415;28;20480;-91
2023/09/23 01:40:55;;;;;;;10.05;2.08;;;10.00;99.90;;;;;;4965023;29;20023;-91
2023/09/23 01:43:20;;;;;;;11.65;2.10;;;10.00;99.90;;;;;;4965729;29;20116;-91
2023/09/23 01:45:46;;;;;;;8.82;2.40;;;10.00;99.90;;;;;;4955974;29;20469;-90
2023/09/23 01:48:12;;;;;;;4.97;2.15;;;10.00;99.90;;;;;;4957420;28;20363;-91
2023/09/23 01:50:37;;;;;;;11.25;2.05;;;9.90;99.90;;;;;;4959664;29;20051;-91
2023/09/23 01:53:04;;;;;;;9.52;1.98;;;9.90;99.90;;;;;;4963604;28;20111;-90
2023/09/23 01:55:29;;;;;;;9.60;2.50;;;9.90;99.90;;;;;;4964085;28;20066;-91
2023/09/23 01:57:55;;;;;;;4.82;1.98;;;9.90;99.90;;;;;;4967269;28;20015;-91
2023/09/23 02:00:25;;;;;;;7.45;2.03;;;9.90;99.90;;;;;;4977692;28;20043;-92
2023/09/23 02:02:53;;;;;;;7.97;2.35;;;9.90;99.90;;;;;;4978772;28;20019;-91
2023/09/23 02:05:20;;;;;;;8.90;2.17;;;9.90;99.90;;;;;;4998589;28;20042;-91
2023/09/23 02:07:50;;;;;;;5.63;1.73;;;9.90;99.90;;;;;;4990222;28;20046;-92
2023/09/23 02:10:17;;;;;;;6.65;1.60;;;9.90;99.90;;;;;;4962979;28;20062;-91
2023/09/23 02:12:43;;;;;;;5.45;1.67;;;10.00;99.90;;;;;;4976807;28;20034;-91
2023/09/23 02:15:10;;;;;;;6.43;1.77;;;10.00;99.90;;;;;;4960504;28;20038;-91
2023/09/23 02:17:36;;;;;;;9.23;1.95;;;10.00;99.90;;;;;;4975885;28;20110;-92
2023/09/23 02:20:21;;;;;;;9.05;1.55;;;10.00;99.90;;;;;;4943974;28;20121;-91
2023/09/23 02:22:54;;;;;;;8.90;1.92;;;10.10;99.90;;;;;;4958927;28;20038;-91
2023/09/23 02:25:26;;;;;;;10.50;1.98;;;10.10;99.90;;;;;;4959214;28;20035;-90
2023/09/23 02:27:52;;;;;;;12.52;1.60;;;10.10;99.90;;;;;;4975731;28;20420;-91
2023/09/23 02:30:18;;;;;;;13.98;1.77;;;10.10;99.90;;;;;;4975083;28;20038;-91
2023/09/23 02:32:46;;;;;;;9.70;1.67;;;10.10;99.90;;;;;;4959199;28;20472;-91
2023/09/23 02:35:15;;;;;;;9.18;2.08;;;10.10;99.90;;;;;;4974520;28;20054;-91
2023/09/23 02:37:45;;;;;;;9.35;1.30;;;10.10;99.90;;;;;;4977525;28;20030;-90
2023/09/23 02:40:14;;;;;;;4.22;1.30;;;10.10;99.90;;;;;;4978363;28;20378;-90
2023/09/23 02:42:40;;;;;;;8.57;1.40;;;10.10;99.90;;;;;;4978095;28;20392;-89
2023/09/23 02:45:09;;;;;;;11.38;2.40;;;10.20;99.90;;;;;;4977933;28;20042;-90
2023/09/23 02:47:36;;;;;;;8.30;1.60;;;10.20;99.90;;;;;;4962233;28;20574;-91
2023/09/23 02:50:03;;;;;;;15.40;2.05;;;10.20;99.90;;;;;;4962028;28;20386;-91
2023/09/23 02:52:29;;;;;;;13.55;1.58;;;10.20;99.90;;;;;;4977929;28;20023;-90
2023/09/23 02:54:54;;;;;;;9.25;1.60;;;10.20;99.90;;;;;;4962209;28;20089;-91
2023/09/23 02:57:20;;;;;;;7.75;1.33;;;10.20;99.90;;;;;;4962252;28;20023;-91
2023/09/23 02:59:53;;;;;;;11.63;2.25;;;10.20;99.90;;;;;;4978772;28;20535;-90
2023/09/23 03:02:23;;;;;;;8.35;1.40;;;10.20;99.90;;;;;;4962251;28;20031;-91
2023/09/23 03:04:58;;;;;;;7.97;1.80;;;10.20;99.90;;;;;;4979152;28;20035;-90
2023/09/23 03:07:32;;;;;;;6.13;1.50;;;10.20;99.90;;;;;;4961715;28;20496;-91
2023/09/23 03:10:00;;;;;;;11.63;2.20;;;10.20;99.90;;;;;;4977216;28;20031;-91
2023/09/23 03:12:40;;;;;;;7.63;1.30;;;10.20;99.90;;;;;;4976945;28;20081;-91
2023/09/23 03:15:14;;;;;;;8.82;1.60;;;10.20;99.90;;;;;;4978794;28;20033;-91
2023/09/23 03:17:42;;;;;;;10.52;1.58;;;10.20;99.90;;;;;;4961026;28;20019;-90
2023/09/23 03:20:10;;;;;;;4.25;1.50;;;10.20;99.90;;;;;;4979027;28;20026;-91
2023/09/23 03:22:36;;;;;;;4.55;1.52;;;10.20;99.90;;;;;;4985774;28;20077;-90
2023/09/23 03:25:03;;;;;;;9.93;1.25;;;10.20;99.90;;;;;;4968203;28;20039;-92
2023/09/23 03:27:28;;;;;;;10.20;1.75;;;10.20;99.90;;;;;;4968101;28;20050;-92
2023/09/23 03:29:54;;;;;;;8.68;1.35;;;10.20;99.90;;;;;;4961163;28;20074;-90
2023/09/23 03:32:20;;;;;;;4.82;1.23;;;10.20;99.90;;;;;;4978400;28;20043;-92
2023/09/23 03:34:50;;;;;;;9.40;1.30;;;10.20;99.90;;;;;;4960709;28;20031;-91
2023/09/23 03:37:16;;;;;;;7.90;1.80;;;10.20;99.90;;;;;;4972301;28;20037;-91
2023/09/23 03:39:41;;;;;;;10.63;1.88;;;10.20;99.90;;;;;;4979620;28;20030;-91
2023/09/23 03:42:09;;;;;;;6.32;1.15;;;10.30;99.90;;;;;;4995628;28;20045;-91
2023/09/23 03:44:35;;;;;;;6.63;1.52;;;10.20;99.90;;;;;;4979685;28;20361;-91
2023/09/23 03:47:01;;;;;;;8.48;1.30;;;10.20;99.90;;;;;;4975733;28;20030;-90
2023/09/23 03:49:28;;;;;;;7.65;1.23;;;10.20;99.90;;;;;;4959934;28;20038;-91
2023/09/23 03:51:54;;;;;;;9.07;1.17;;;10.20;99.90;;;;;;4960263;28;20069;-91
2023/09/23 03:54:19;;;;;;;8.07;1.92;;;10.20;99.90;;;;;;4970860;28;20023;-91
2023/09/23 03:56:45;;;;;;;3.60;1.20;;;10.20;99.90;;;;;;4965203;28;20397;-92
2023/09/23 03:59:10;;;;;;;6.20;1.30;;;10.20;99.90;;;;;;4960265;28;20058;-91
2023/09/23 04:01:39;;;;;;;7.35;1.20;;;10.20;99.90;;;;;;4959767;28;20023;-92
2023/09/23 04:04:07;;;;;;;7.60;2.00;;;10.20;99.90;;;;;;4959085;28;20050;-91
2023/09/23 04:06:33;;;;;;;6.18;1.35;;;10.30;99.90;;;;;;4959139;28;20027;-92
2023/09/23 04:08:59;;;;;;;4.13;1.10;;;10.30;99.90;;;;;;4959998;28;20082;-91
2023/09/23 04:11:27;;;;;;;5.40;1.50;;;10.30;99.90;;;;;;4960083;28;20038;-90
2023/09/23 04:13:53;;;;;;;5.43;1.20;;;10.30;99.90;;;;;;4960145;28;20500;-90
2023/09/23 04:16:19;;;;;;;5.00;0.93;;;10.30;99.90;;;;;;4959843;28;20039;-90
2023/09/23 04:18:46;;;;;;;4.90;1.10;;;10.40;99.90;;;;;;4962472;28;20057;-88
2023/09/23 04:21:12;;;;;;;6.80;2.40;;;10.40;99.90;;;;;;4964202;28;20543;-89
2023/09/23 04:23:39;;;;;;;5.15;1.40;;;10.40;99.90;;;;;;4981110;28;20019;-91
2023/09/23 04:26:05;;;;;;;7.15;1.55;;;10.40;99.90;;;;;;4965941;28;20034;-90
2023/09/23 04:28:31;;;;;;;8.88;1.20;;;10.40;99.90;;;;;;4981164;28;20033;-90
2023/09/23 04:30:57;;;;;;;4.65;1.05;;;10.40;99.90;;;;;;4960936;28;20045;-90
2023/09/23 04:33:26;;;;;;;5.40;1.00;;;10.40;99.90;;;;;;4978129;28;20109;-90
2023/09/23 04:35:52;;;;;;;7.25;1.20;;;10.50;99.90;;;;;;4960160;28;20038;-89
2023/09/23 04:38:18;;;;;;;4.05;1.10;;;10.50;99.90;;;;;;4959726;28;20027;-90
2023/09/23 04:40:43;;;;;;;8.20;2.47;;;10.50;99.90;;;;;;4959490;28;20433;-89
2023/09/23 04:43:12;;;;;;;11.68;1.92;;;10.50;99.90;;;;;;4975721;28;20026;-90
2023/09/23 04:45:38;;;;;;;10.75;1.40;;;10.50;99.90;;;;;;4958855;28;20027;-89
2023/09/23 04:48:07;;;;;;;8.40;1.88;;;10.50;99.90;;;;;;4958796;28;20077;-89
2023/09/23 04:50:33;;;;;;;3.42;1.30;;;10.50;99.90;;;;;;4958673;28;20068;-89
2023/09/23 04:52:59;;;;;;;7.85;1.35;;;10.50;99.90;;;;;;4959171;28;20030;-91
2023/09/23 04:55:25;;;;;;;7.97;1.60;;;10.50;99.90;;;;;;4958969;28;20034;-90
2023/09/23 04:57:51;;;;;;;4.63;1.20;;;10.50;99.90;;;;;;4959436;28;20031;-90
2023/09/23 05:00:18;;;;;;;10.07;1.73;;;10.50;99.90;;;;;;4958761;28;20053;-90
2023/09/23 05:02:49;;;;;;;6.25;1.70;;;10.40;99.90;;;;;;4975687;28;20025;-90
2023/09/23 05:05:16;;;;;;;6.32;1.60;;;10.40;99.90;;;;;;4958792;28;20058;-89
2023/09/23 05:07:41;;;;;;;6.25;1.48;;;10.40;99.90;;;;;;4958820;28;20022;-89
2023/09/23 05:10:09;;;;;;;6.57;1.40;;;10.40;99.90;;;;;;4976221;28;20117;-91
2023/09/23 05:12:34;;;;;;;8.45;1.70;;;10.40;99.90;;;;;;4975832;28;20101;-92
2023/09/23 05:15:00;;;;;;;7.45;1.80;;;10.40;99.90;;;;;;4958509;28;20030;-90
2023/09/23 05:17:28;;;;;;;7.30;1.75;;;10.40;99.90;;;;;;4975904;28;20023;-90
2023/09/23 05:19:54;;;;;;;6.68;2.10;;;10.30;99.90;;;;;;4958418;28;20034;-92
2023/09/23 05:22:20;;;;;;;4.25;1.35;;;10.30;99.90;;;;;;4975431;28;20035;-91
2023/09/23 05:24:50;;;;;;;4.90;1.65;;;10.30;99.90;;;;;;4959120;28;20496;-89
2023/09/23 05:27:16;;;;;;;7.80;2.35;;;10.30;99.90;;;;;;4963187;28;20523;-88
2023/09/23 05:29:44;;;;;;;13.63;2.50;;;10.30;99.90;;;;;;4958282;28;20046;-88
2023/09/23 05:32:10;;;;;;;9.15;1.70;;;10.30;99.90;;;;;;4975707;28;20029;-89
2023/09/23 05:34:39;;;;;;;5.45;1.50;;;10.20;99.90;;;;;;4974722;28;20033;-89
2023/09/23 05:37:06;;;;;;;6.53;1.50;;;10.20;99.90;;;;;;4974211;28;20023;-91
2023/09/23 05:39:34;;;;;;;3.53;1.98;;;10.20;99.90;;;;;;4975726;28;20019;-91
2023/09/23 05:42:01;;;;;;;7.90;2.22;;;10.10;99.90;;;;;;4958242;28;20125;-89
2023/09/23 05:44:27;;;;;;;2.75;1.30;;;10.10;99.90;;;;;;4975319;28;20023;-91
2023/09/23 05:46:53;;;;;;;6.07;1.85;;;10.10;99.90;;;;;;4957302;28;20121;-90
2023/09/23 05:49:18;;;;;;;7.60;1.30;;;10.10;99.90;;;;;;4957364;28;20026;-90
2023/09/23 05:51:45;;;;;;;6.78;1.50;;;10.10;99.90;;;;;;4973791;28;20038;-90
2023/09/23 05:54:11;;;;;;;3.72;1.27;;;10.00;99.90;;;;;;4979025;28;20027;-91
2023/09/23 05:56:37;;;;;;;7.85;1.50;;;10.10;99.90;;;;;;4980890;28;20037;-90
2023/09/23 05:59:03;;;;;;;4.28;1.25;;;10.00;99.90;;;;;;4981903;28;20532;-90
2023/09/23 06:01:28;;;;;;;7.07;1.60;;;10.00;99.90;;;;;;4985838;28;20113;-90
2023/09/23 06:03:55;;;;;;;6.03;1.50;;;10.00;99.90;;;;;;4974757;28;20125;-90
2023/09/23 06:06:21;;;;;;;3.90;1.40;;;10.00;99.90;;;;;;4992640;28;20014;-90
2023/09/23 06:08:48;;;;;;;7.43;1.65;;;10.00;99.90;;;;;;4993080;28;20025;-91
2023/09/23 06:11:14;;;;;;;5.18;1.23;;;10.00;99.90;;;;;;4975998;28;20030;-90
2023/09/23 06:13:40;;;;;;;8.80;1.20;;;10.00;99.90;;;;;;4976576;28;20019;-91
2023/09/23 06:16:06;;;;;;;8.57;1.70;;;10.00;99.90;;;;;;4976860;28;20026;-89
2023/09/23 06:18:33;;;;;;;4.25;1.00;;;10.00;99.90;;;;;;4972959;28;20473;-90
2023/09/23 06:21:00;;;;;;;4.00;1.50;;;10.00;99.90;;;;;;4956920;28;20489;-90
2023/09/23 06:23:26;;;;;;;7.45;1.40;;;10.00;99.90;;;;;;4957520;28;20066;-89
2023/09/23 06:25:56;;;;;;;6.90;1.80;;;9.90;99.90;;;;;;4957430;28;20023;-89
2023/09/23 06:28:24;;;;;;;10.40;1.20;;;9.90;99.90;;;;;;4957506;28;20503;-90
2023/09/23 06:30:50;;;;;;;3.55;1.02;;;9.90;99.90;;;;;;4973166;28;20505;-90
2023/09/23 06:33:16;;;;;;;3.80;1.48;;;9.90;99.90;;;;;;4956917;28;20061;-90
2023/09/23 06:35:42;;;;;;;9.35;1.30;;;9.90;99.90;;;;;;4976372;28;20368;-90
2023/09/23 06:38:07;;;;;;;5.43;1.77;;;9.90;99.90;;;;;;4976075;28;20030;-90
2023/09/23 06:40:33;;;;;;;5.18;1.42;;;9.90;99.90;;;;;;4990879;28;20030;-90
2023/09/23 06:42:59;;;;;;;5.22;1.40;;;9.90;99.90;;;;;;4989708;28;20040;-91
2023/09/23 06:45:25;;;;;;;8.40;1.60;;;9.90;99.90;;;;;;4975454;28;20065;-90
2023/09/23 06:47:50;;;;;;;6.18;1.15;;;9.90;99.90;;;;;;4968466;28;20060;-91
2023/09/23 06:50:17;;;;;;;8.18;1.63;;;9.80;99.90;;;;;;4965373;28;20468;-91
2023/09/23 06:52:43;;;;;;;3.55;1.30;;;9.80;99.90;;;;;;4968802;28;20031;-91
2023/09/23 06:55:09;;;;;;;3.60;0.85;;;9.90;99.90;;;;;;4962032;28;20034;-92
2023/09/23 06:57:35;;;;;;;8.13;1.45;;;9.90;99.90;;;;;;4970206;28;20029;-92
2023/09/23 07:00:02;;;;;;;12.30;1.80;;;9.90;99.90;;;;;;4976139;28;20030;-90
2023/09/23 07:02:28;;;;;;;7.25;1.52;;;9.90;99.90;;;;;;4973059;28;20105;-90
2023/09/23 07:04:53;;;;;;;7.03;1.48;;;9.90;99.90;;;;;;4975626;28;20077;-90
2023/09/23 07:07:19;;;;;;;3.20;1.20;;;9.90;99.90;;;;;;4974464;28;20109;-90
2023/09/23 07:09:45;;;;;;;8.40;1.60;;;9.90;99.90;;;;;;4983282;28;20483;-89
2023/09/23 07:12:12;;;;;;;5.35;1.65;;;9.90;99.90;;;;;;4990120;28;20504;-90
2023/09/23 07:14:39;;;;;;;3.78;1.15;;;9.90;99.90;;;;;;4967569;28;20049;-90
2023/09/23 07:17:06;;;;;;;7.68;1.40;;;9.90;99.90;;;;;;4967667;28;20031;-91
2023/09/23 07:19:32;;;;;;;4.50;1.45;;;9.90;99.90;;;;;;4968935;28;20365;-90
2023/09/23 07:21:58;;;;;;;5.45;1.30;;;9.90;99.90;;;;;;4978971;28;20026;-91
2023/09/23 07:24:26;;;;;;;6.10;1.58;;;9.90;99.90;;;;;;4988978;28;20400;-91
2023/09/23 07:26:54;;;;;;;10.40;1.80;;;10.00;99.90;;;;;;4977636;28;20035;-91
2023/09/23 07:29:19;;;;;;;6.07;1.50;;;10.00;99.90;;;;;;4961606;28;20026;-90
2023/09/23 07:31:45;;;;;;;5.75;1.25;;;10.00;99.90;;;;;;4977737;28;20035;-90
2023/09/23 07:34:12;;;;;;;7.97;1.60;;;10.00;99.90;;;;;;4982196;28;20061;-90
2023/09/23 07:36:37;;;;;;;5.22;1.30;;;10.10;99.90;;;;;;4983607;28;20030;-90
2023/09/23 07:39:03;;;;;;;6.50;1.30;;;10.10;99.90;;;;;;5007926;28;20049;-87
2023/09/23 07:41:30;;;;;;;5.25;1.30;;;10.10;99.90;;;;;;5003158;28;20019;-89
2023/09/23 07:43:57;;;;;;;8.13;2.13;;;10.20;99.90;;;;;;5001797;28;20030;-89
2023/09/23 07:46:22;;;;;;;5.07;1.10;;;10.20;99.90;;;;;;4989756;28;20077;-90
2023/09/23 07:48:48;;;;;;;3.65;1.25;;;10.20;99.90;;;;;;4987111;28;20018;-90
2023/09/23 07:51:14;;;;;;;3.97;1.33;;;10.30;99.90;;;;;;4986903;28;20041;-90
2023/09/23 07:53:39;;;;;;;2.00;1.00;;;10.30;99.90;;;;;;5003670;28;20026;-89
2023/09/23 07:56:05;;;;;;;3.60;1.30;;;10.40;99.90;;;;;;4985231;28;20137;-90
2023/09/23 07:58:31;;;;;;;3.45;1.00;;;10.50;99.90;;;;;;5002292;28;20023;-90
2023/09/23 08:00:57;;;;;;;2.78;1.10;;;10.60;99.90;;;;;;4983705;28;20077;-89
2023/09/23 08:03:26;;;;;;;3.35;1.05;;;10.60;99.90;;;;;;4984720;28;20401;-89
2023/09/23 08:05:53;;;;;;;4.32;1.08;;;10.70;99.90;;;;;;4962207;28;20039;-89
2023/09/23 08:08:19;;;;;;;7.75;1.55;;;10.80;99.90;;;;;;4980535;28;20070;-89
2023/09/23 08:10:45;;;;;;;5.60;2.10;;;10.80;99.90;;;;;;4982096;28;20452;-90
2023/09/23 08:13:10;;;;;;;8.48;1.08;;;10.90;99.90;;;;;;4998651;28;20128;-90
2023/09/23 08:15:36;;;;;;;9.82;1.00;;;11.00;99.90;;;;;;4998980;28;20037;-90
2023/09/23 08:18:02;;;;;;;7.10;1.15;;;11.00;99.90;;;;;;4992318;28;20023;-90
2023/09/23 08:20:29;;;;;;;7.85;1.23;;;11.10;99.90;;;;;;4981594;28;20392;-90
2023/09/23 08:22:55;;;;;;;5.50;1.33;;;11.10;99.90;;;;;;4980504;28;20049;-89
2023/09/23 08:25:20;;;;;;;11.55;1.63;;;11.20;99.90;;;;;;4979423;28;20022;-89
2023/09/23 08:27:47;;;;;;;9.35;1.80;;;11.20;99.90;;;;;;4977073;28;20395;-90
2023/09/23 08:30:15;;;;;;;6.47;1.20;;;11.30;99.90;;;;;;4989503;28;20041;-90
2023/09/23 08:32:43;;;;;;;4.10;1.02;;;11.30;99.90;;;;;;4980678;28;20554;-89
2023/09/23 08:35:09;;;;;;;10.48;1.48;;;11.40;99.90;;;;;;4978943;28;20030;-90
2023/09/23 08:37:35;;;;;;;10.20;1.70;;;11.50;99.90;;;;;;4980583;28;20077;-90
2023/09/23 08:40:03;;;;;;;8.32;1.50;;;11.50;99.90;;;;;;4966758;28;20392;-90
2023/09/23 08:42:29;;;;;;;7.65;1.40;;;11.60;99.90;;;;;;4960193;28;20027;-90
2023/09/23 08:44:56;;;;;;;6.53;1.73;;;11.70;99.90;;;;;;4960415;28;20088;-91
2023/09/23 08:47:22;;;;;;;6.72;1.10;;;11.70;99.90;;;;;;4995932;28;20041;-91
2023/09/23 08:49:50;;;;;;;8.07;1.20;;;11.80;99.90;;;;;;4979198;28;20547;-90
2023/09/23 08:52:19;;;;;;;9.35;1.10;;;11.90;99.90;;;;;;4979598;28;20034;-90
2023/09/23 08:54:49;;;;;;;5.80;1.10;;;12.10;99.90;;;;;;4997404;28;20546;-91
2023/09/23 08:57:16;;;;;;;;;;;12.10;99.90;;;;;;4987647;28;20030;-90
2023/09/23 08:59:42;;;;;;;11.57;1.30;;;12.20;99.90;;;;;;4963305;28;19910;-91
2023/09/23 09:02:07;;;;;;;8.43;1.10;;;12.30;99.90;;;;;;4977811;28;20027;-90
2023/09/23 09:04:34;;;;;;;10.13;1.33;;;12.40;99.90;;;;;;4978523;28;20039;-90
2023/09/23 09:06:59;;;;;;;6.88;1.08;;;12.60;99.90;;;;;;4975458;28;20030;-90
2023/09/23 09:09:25;;;;;;;6.47;1.00;;;12.70;99.90;;;;;;4978464;28;20057;-90
2023/09/23 09:11:54;;;;;;;4.30;0.90;;;12.80;99.90;;;;;;4994307;28;20034;-89
2023/09/23 09:14:22;;;;;;;9.10;1.05;;;12.90;99.90;;;;;;4978174;28;20121;-91
2023/09/23 09:16:48;;;;;;;5.40;0.95;;;13.10;99.90;;;;;;4978154;28;20022;-89
2023/09/23 09:19:14;;;;;;;13.13;2.72;;;13.10;99.90;;;;;;4977659;28;20023;-89
2023/09/23 09:21:41;;;;;;;8.57;1.40;;;13.20;99.90;;;;;;4978028;28;20550;-89
2023/09/23 09:24:07;;;;;;;7.28;1.08;;;13.30;99.90;;;;;;4977611;28;20066;-89
2023/09/23 09:26:35;;;;;;;8.27;1.25;;;13.40;99.90;;;;;;4976865;28;20026;-89
2023/09/23 09:29:02;;;;;;;6.68;1.02;;;13.60;99.90;;;;;;4976179;28;20026;-89
2023/09/23 09:31:35;;;;;;;7.95;1.88;;;13.60;99.90;;;;;;4993495;28;20034;-89
2023/09/23 09:34:11;;;;;;;11.73;1.50;;;13.60;99.90;;;;;;4992390;28;20026;-89
2023/09/23 09:36:40;;;;;;;8.18;1.00;;;13.70;99.90;;;;;;4976096;28;20512;-90
2023/09/23 09:39:10;;;;;;;7.97;1.13;;;13.70;99.90;;;;;;4975910;28;20037;-92
2023/09/23 09:42:04;;;;;;;5.43;1.55;;;13.60;99.90;;;;;;4993341;28;20030;-92
2023/09/23 09:44:30;;;;;;;4.65;1.02;;;13.50;99.90;;;;;;4991809;28;20038;-92
2023/09/23 09:46:56;;;;;;;6.88;1.30;;;13.50;99.90;;;;;;4977938;28;20117;-90
2023/09/23 09:49:23;;;;;;;8.40;1.35;;;13.60;99.90;;;;;;4981024;28;20058;-89
2023/09/23 09:51:49;;;;;;;7.10;1.10;;;13.80;99.90;;;;;;4977909;28;20119;-90
2023/09/23 09:54:20;;;;;;;4.93;0.80;;;14.10;99.90;;;;;;4995045;28;20037;-90
2023/09/23 09:56:49;;;;;;;5.15;0.80;;;14.50;99.90;;;;;;4978129;28;20121;-89
2023/09/23 09:59:30;;;;;;;8.15;1.52;;;14.80;99.90;;;;;;4979450;28;20023;-90
2023/09/23 10:01:57;;;;;;;5.28;1.15;;;15.10;99.90;;;;;;4978997;28;20034;-91
2023/09/23 10:04:23;;;;;;;8.48;1.08;;;15.30;99.90;;;;;;4975030;28;20053;-91
2023/09/23 10:06:56;;;;;;;5.63;1.08;;;15.40;99.90;;;;;;4974719;28;20061;-90
2023/09/23 10:09:32;;;;;;;5.20;1.05;;;15.70;99.90;;;;;;4973856;28;20034;-90
2023/09/23 10:11:59;;;;;;;7.40;1.20;;;16.00;99.90;;;;;;4973980;28;20500;-91
2023/09/23 10:14:28;;;;;;;5.00;1.52;;;16.20;99.90;;;;;;4975444;28;20061;-90
2023/09/23 10:17:05;;;;;;;6.20;1.38;;;16.40;99.90;;;;;;4982481;28;20026;-90
2023/09/23 10:19:39;;;;;;;6.47;1.50;;;16.60;99.90;;;;;;4975754;28;20026;-90
2023/09/23 10:22:18;;;;;;;5.32;1.13;;;16.80;99.90;;;;;;4974144;28;20226;-90
2023/09/23 10:24:44;;;;;;;4.45;1.27;;;17.10;99.90;;;;;;4982731;28;20026;-89
2023/09/23 10:27:10;;;;;;;4.82;1.10;;;17.30;99.90;;;;;;4987132;28;20031;-91
2023/09/23 10:29:49;;;;;;;6.57;1.33;;;17.40;98.70;;;;;;4976941;28;20082;-90
2023/09/23 10:32:16;;;;;;;5.60;1.58;;;17.60;98.40;;;;;;4973799;28;20054;-90
2023/09/23 10:34:51;;;;;;;5.88;1.30;;;17.70;95.70;;;;;;4974080;28;20122;-89
2023/09/23 10:37:32;;;;;;;4.32;1.45;;;17.70;94.20;;;;;;4974932;28;20015;-89
2023/09/23 10:40:17;;;;;;;5.38;1.38;;;17.70;94.60;;;;;;4974160;28;20420;-90
2023/09/23 10:42:46;;;;;;;8.35;1.95;;;17.60;94.30;;;;;;4973884;28;20599;-90
2023/09/23 10:45:13;;;;;;;4.45;1.17;;;17.40;93.20;;;;;;4973623;28;20057;-90
2023/09/23 10:47:43;;;;;;;9.77;1.50;;;17.00;93.50;;;;;;4973992;28;20534;-90
2023/09/23 10:50:09;;;;;;;7.57;1.40;;;16.80;94.00;;;;;;4974497;28;20042;-90
2023/09/23 10:52:36;;;;;;;6.95;1.67;;;16.50;94.50;;;;;;4974597;28;20034;-89
2023/09/23 10:55:02;;;;;;;9.13;1.35;;;16.40;95.10;;;;;;4973857;28;20027;-90
2023/09/23 10:57:28;;;;;;;2.45;1.00;;;16.50;95.70;;;;;;4975167;28;20374;-89
2023/09/23 10:59:55;;;;;;;6.43;1.70;;;16.50;95.60;;;;;;4977456;28;20026;-89
2023/09/23 11:02:22;;;;;;;5.38;1.65;;;16.60;95.50;;;;;;4978660;28;20031;-90
2023/09/23 11:04:49;;;;;;;5.68;1.20;;;16.70;95.40;;;;;;4992512;28;20046;-90
2023/09/23 11:07:17;;;;;;;8.05;1.48;;;16.60;94.20;;;;;;5005208;28;20031;-89
2023/09/23 11:09:46;;;;;;;4.90;1.20;;;16.60;94.10;;;;;;4987396;28;20045;-89
2023/09/23 11:12:16;;;;;;;9.88;1.60;;;16.70;94.10;;;;;;4985821;28;20042;-90
2023/09/23 11:14:45;;;;;;;6.82;1.48;;;16.90;93.20;;;;;;4986320;28;20037;-90
2023/09/23 11:17:29;;;;;;;6.93;1.45;;;17.20;92.80;;;;;;4982557;28;20046;-90
2023/09/23 11:19:55;;;;;;;7.40;1.38;;;17.30;91.30;;;;;;4999725;28;20030;-88
2023/09/23 11:22:25;;;;;;;4.47;1.30;;;17.30;91.00;;;;;;4999001;28;20022;-89
2023/09/23 11:24:51;;;;;;;4.13;1.13;;;17.10;90.80;;;;;;5004843;28;20027;-89
2023/09/23 11:27:17;;;;;;;5.57;1.40;;;17.00;90.90;;;;;;4981420;28;20018;-90
2023/09/23 11:29:43;;;;;;;5.40;1.23;;;17.00;91.20;;;;;;4980595;28;20046;-90
2023/09/23 11:32:10;;;;;;;8.52;1.70;;;16.90;91.30;;;;;;4980956;28;20120;-90
2023/09/23 11:34:36;;;;;;;7.75;1.50;;;16.90;91.40;;;;;;4997387;28;20034;-90
2023/09/23 11:37:02;;;;;;;8.25;1.58;;;16.80;91.30;;;;;;4980806;28;20492;-90
2023/09/23 11:39:53;;;;;;;5.82;1.60;;;16.70;91.40;;;;;;4997837;28;20030;-87
2023/09/23 11:42:19;;;;;;;6.15;1.50;;;16.60;91.50;;;;;;4997577;28;20054;-87
2023/09/23 11:44:45;;;;;;;4.88;1.35;;;16.50;91.50;;;;;;4996619;28;20036;-90
2023/09/23 11:47:13;;;;;;;6.47;1.73;;;16.40;91.80;;;;;;4997223;28;20030;-90
2023/09/23 11:49:39;;;;;;;4.47;1.70;;;16.40;91.70;;;;;;4979481;28;20030;-90
2023/09/23 11:52:12;;;;;;;3.85;1.42;;;16.50;91.60;;;;;;4997051;28;20041;-89
2023/09/23 11:54:38;;;;;;;8.95;1.58;;;16.80;91.50;;;;;;4979694;28;20386;-88
2023/09/23 11:57:04;;;;;;;8.02;1.50;;;17.10;91.00;;;;;;4979831;28;20034;-88
2023/09/23 11:59:29;;;;;;;4.82;1.40;;;17.30;90.00;;;;;;4979306;28;20031;-88
2023/09/23 12:01:56;;;;;;;6.95;1.63;;;17.60;89.00;;;;;;4997306;28;20027;-89
2023/09/23 12:04:21;;;;;;;2.70;1.00;;;17.80;87.70;;;;;;4995484;28;20523;-90
2023/09/23 12:06:47;;;;;;;2.05;1.00;;;17.80;85.00;;;;;;4996413;28;20035;-90
2023/09/23 12:09:12;;;;;;;5.55;1.05;;;17.80;83.90;;;;;;4997104;28;20034;-88
2023/09/23 12:11:38;;;;;;;3.33;1.00;;;17.80;82.90;;;;;;4998533;28;20129;-87
2023/09/23 12:14:04;;;;;;;4.30;1.02;;;17.80;82.50;;;;;;4997572;28;20034;-89
2023/09/23 12:16:30;;;;;;;4.88;1.20;;;18.00;81.40;;;;;;4997583;28;20030;-89
2023/09/23 12:18:55;;;;;;;2.65;1.10;;;18.30;80.80;;;;;;4980869;28;20033;-89
2023/09/23 12:21:21;;;;;;;5.95;1.30;;;18.80;80.20;;;;;;4998102;28;20035;-89
2023/09/23 12:23:48;;;;;;;3.97;1.40;;;19.20;78.50;;;;;;4981328;28;20034;-89
2023/09/23 12:26:15;;;;;;;6.90;1.40;;;19.30;76.80;;;;;;4996860;28;20038;-89
2023/09/23 12:28:41;;;;;;;5.53;1.50;;;19.30;75.40;;;;;;4996969;28;20098;-90
2023/09/23 12:31:06;;;;;;;3.47;1.17;;;19.20;74.90;;;;;;4996242;28;20042;-90
2023/09/23 12:33:32;;;;;;;5.35;1.00;;;19.00;74.40;;;;;;4997161;28;20037;-88
2023/09/23 12:35:57;;;;;;;2.92;1.10;;;18.80;73.70;;;;;;5002817;28;20054;-88
2023/09/23 12:38:23;;;;;;;2.50;0.93;;;18.70;74.10;;;;;;4989588;28;20030;-87
2023/09/23 12:40:49;;;;;;;5.30;1.42;;;18.70;74.00;;;;;;4999813;28;20499;-89
2023/09/23 12:43:14;;;;;;;3.83;1.20;;;18.60;73.70;;;;;;4979117;28;20053;-89
2023/09/23 12:45:44;;;;;;;6.35;1.02;;;18.50;73.90;;;;;;4978712;28;20027;-90
2023/09/23 12:48:10;;;;;;;4.82;1.10;;;18.20;73.40;;;;;;4979385;28;20054;-89